sensor_id;sensor_type;location;lat;lon;timestamp;temperature;humidity
8214;DHT22;4148;47.974;7.824;2022-11-15T00:01:08;10.40;99.90
8214;DHT22;4148;47.974;7.824;2022-11-15T00:03:36;10.30;99.90
8214;DHT22;4148;47.974;7.824;2022-11-15T00:06:05;10.30;99.90
8214;DHT22;4148;47.974;7.824;2022-11-15T00:08:33;10.30;99.90
8214;DHT22;4148;47.974;7.824;2022-11-15T00:11:02;10.30;99.90
8214;DHT22;4148;47.974;7.824;2022-11-15T00:13:31;10.20;99.90
8214;DHT22;4148;47.974;7.824;2022-11-15T00:16:00;10.20;99.90
8214;DHT22;4148;47.974;7.824;2022-11-15T00:18:29;10.20;99.90
8214;DHT22;4148;47.974;7.824;2022-11-15T00:21:04;10.20;99.90
8214;DHT22;4148;47.974;7.824;2022-11-15T00:23:33;10.20;99.90
8214;DHT22;4148;47.974;7.824;2022-11-15T00:26:00;10.20;99.90
8214;DHT22;4148;47.974;7.824;2022-11-15T00:28:29;10.20;99.90
8214;DHT22;4148;47.974;7.824;2022-11-15T00:31:01;10.20;99.90
8214;DHT22;4148;47.974;7.824;2022-11-15T00:33:30;10.10;99.90
8214;DHT22;4148;47.974;7.824;2022-11-15T00:36:02;10.10;99.90
8214;DHT22;4148;47.974;7.824;2022-11-15T00:38:31;10.10;99.90
8214;DHT22;4148;47.974;7.824;2022-11-15T00:41:01;10.10;99.90
8214;DHT22;4148;47.974;7.824;2022-11-15T00:43:35;10.10;99.90
8214;DHT22;4148;47.974;7.824;2022-11-15T00:46:05;10.10;99.90
8214;DHT22;4148;47.974;7.824;2022-11-15T00:48:34;10.10;99.90
8214;DHT22;4148;47.974;7.824;2022-11-15T00:51:02;10.10;99.90
8214;DHT22;4148;47.974;7.824;2022-11-15T00:53:30;10.10;99.90
8214;DHT22;4148;47.974;7.824;2022-11-15T00:55:58;10.00;99.90
8214;DHT22;4148;47.974;7.824;2022-11-15T00:58:26;10.10;99.90
8214;DHT22;4148;47.974;7.824;2022-11-15T01:00:54;10.00;99.90
8214;DHT22;4148;47.974;7.824;2022-11-15T01:03:23;10.00;99.90
8214;DHT22;4148;47.974;7.824;2022-11-15T01:05:51;10.10;99.90
8214;DHT22;4148;47.974;7.824;2022-11-15T01:08:19;10.20;99.90
8214;DHT22;4148;47.974;7.824;2022-11-15T01:10:47;10.20;99.90
8214;DHT22;4148;47.974;7.824;2022-11-15T01:13:15;10.20;99.90
8214;DHT22;4148;47.974;7.824;2022-11-15T01:15:43;10.30;99.90
8214;DHT22;4148;47.974;7.824;2022-11-15T01:18:11;10.30;99.90
8214;DHT22;4148;47.974;7.824;2022-11-15T01:20:41;10.30;99.90
8214;DHT22;4148;47.974;7.824;2022-11-15T01:23:09;10.30;99.90
8214;DHT22;4148;47.974;7.824;2022-11-15T01:25:37;10.20;99.90
8214;DHT22;4148;47.974;7.824;2022-11-15T01:28:05;10.20;99.90
8214;DHT22;4148;47.974;7.824;2022-11-15T01:30:33;10.20;99.90
8214;DHT22;4148;47.974;7.824;2022-11-15T01:33:01;10.30;99.90
8214;DHT22;4148;47.974;7.824;2022-11-15T01:35:28;10.30;99.90
8214;DHT22;4148;47.974;7.824;2022-11-15T01:37:58;10.30;99.90
8214;DHT22;4148;47.974;7.824;2022-11-15T01:40:25;10.30;99.90
8214;DHT22;4148;47.974;7.824;2022-11-15T01:42:53;10.30;99.90
8214;DHT22;4148;47.974;7.824;2022-11-15T01:45:21;10.30;99.90
8214;DHT22;4148;47.974;7.824;2022-11-15T01:47:52;10.30;99.90
8214;DHT22;4148;47.974;7.824;2022-11-15T01:50:25;10.30;99.90
8214;DHT22;4148;47.974;7.824;2022-11-15T01:52:54;10.30;99.90
8214;DHT22;4148;47.974;7.824;2022-11-15T01:55:26;10.50;99.90
8214;DHT22;4148;47.974;7.824;2022-11-15T01:57:59;10.50;99.90
8214;DHT22;4148;47.974;7.824;2022-11-15T02:00:28;10.50;99.90
8214;DHT22;4148;47.974;7.824;2022-11-15T02:02:56;10.50;99.90
8214;DHT22;4148;47.974;7.824;2022-11-15T02:05:25;10.50;99.90
8214;DHT22;4148;47.974;7.824;2022-11-15T02:07:53;10.50;99.90
8214;DHT22;4148;47.974;7.824;2022-11-15T02:10:24;10.50;99.90
8214;DHT22;4148;47.974;7.824;2022-11-15T02:12:52;10.50;99.90
8214;DHT22;4148;47.974;7.824;2022-11-15T02:15:21;10.50;99.90
8214;DHT22;4148;47.974;7.824;2022-11-15T02:18:05;10.60;99.90
8214;DHT22;4148;47.974;7.824;2022-11-15T02:20:51;10.60;99.90
8214;DHT22;4148;47.974;7.824;2022-11-15T02:29:19;12.20;99.90
8214;DHT22;4148;47.974;7.824;2022-11-15T02:31:55;12.40;99.90
8214;DHT22;4148;47.974;7.824;2022-11-15T02:34:33;12.60;99.90
8214;DHT22;4148;47.974;7.824;2022-11-15T02:37:09;12.70;99.90
8214;DHT22;4148;47.974;7.824;2022-11-15T02:39:44;12.80;99.90
8214;DHT22;4148;47.974;7.824;2022-11-15T02:42:18;12.60;99.90
8214;DHT22;4148;47.974;7.824;2022-11-15T02:45:07;12.60;99.90
8214;DHT22;4148;47.974;7.824;2022-11-15T02:47:42;12.60;99.90
8214;DHT22;4148;47.974;7.824;2022-11-15T02:50:13;12.50;99.90
8214;DHT22;4148;47.974;7.824;2022-11-15T02:52:45;12.50;99.90
8214;DHT22;4148;47.974;7.824;2022-11-15T02:55:28;12.50;99.90
8214;DHT22;4148;47.974;7.824;2022-11-15T02:58:06;12.40;99.90
8214;DHT22;4148;47.974;7.824;2022-11-15T03:00:40;12.30;99.90
8214;DHT22;4148;47.974;7.824;2022-11-15T03:03:26;12.20;99.90
8214;DHT22;4148;47.974;7.824;2022-11-15T03:06:04;12.20;99.90
8214;DHT22;4148;47.974;7.824;2022-11-15T03:08:39;12.00;99.90
8214;DHT22;4148;47.974;7.824;2022-11-15T03:11:12;11.90;99.90
8214;DHT22;4148;47.974;7.824;2022-11-15T03:13:47;11.90;99.90
8214;DHT22;4148;47.974;7.824;2022-11-15T03:16:21;11.90;99.90
8214;DHT22;4148;47.974;7.824;2022-11-15T03:18:58;11.90;99.90
8214;DHT22;4148;47.974;7.824;2022-11-15T03:21:28;11.80;99.90
8214;DHT22;4148;47.974;7.824;2022-11-15T03:24:01;12.10;99.90
8214;DHT22;4148;47.974;7.824;2022-11-15T03:26:33;12.10;99.90
8214;DHT22;4148;47.974;7.824;2022-11-15T03:29:06;12.20;99.90
8214;DHT22;4148;47.974;7.824;2022-11-15T03:31:38;12.10;99.90
8214;DHT22;4148;47.974;7.824;2022-11-15T03:34:25;12.00;99.90
8214;DHT22;4148;47.974;7.824;2022-11-15T03:36:54;12.00;99.90
8214;DHT22;4148;47.974;7.824;2022-11-15T03:39:22;11.90;99.90
8214;DHT22;4148;47.974;7.824;2022-11-15T03:41:57;11.90;99.90
8214;DHT22;4148;47.974;7.824;2022-11-15T03:44:39;11.80;99.90
8214;DHT22;4148;47.974;7.824;2022-11-15T03:47:12;11.70;99.90
8214;DHT22;4148;47.974;7.824;2022-11-15T03:49:45;11.60;99.90
8214;DHT22;4148;47.974;7.824;2022-11-15T03:52:17;11.60;99.90
8214;DHT22;4148;47.974;7.824;2022-11-15T03:54:49;11.50;99.90
8214;DHT22;4148;47.974;7.824;2022-11-15T03:57:17;11.40;99.90
8214;DHT22;4148;47.974;7.824;2022-11-15T03:59:45;11.40;99.90
8214;DHT22;4148;47.974;7.824;2022-11-15T04:02:13;11.30;99.90
8214;DHT22;4148;47.974;7.824;2022-11-15T04:04:43;11.30;99.90
8214;DHT22;4148;47.974;7.824;2022-11-15T04:07:11;11.20;99.90
8214;DHT22;4148;47.974;7.824;2022-11-15T04:09:39;11.20;99.90
8214;DHT22;4148;47.974;7.824;2022-11-15T04:12:21;11.20;99.90
8214;DHT22;4148;47.974;7.824;2022-11-15T04:15:02;11.20;99.90
8214;DHT22;4148;47.974;7.824;2022-11-15T04:17:39;11.30;99.90
8214;DHT22;4148;47.974;7.824;2022-11-15T04:20:11;11.20;99.90
8214;DHT22;4148;47.974;7.824;2022-11-15T04:22:59;11.20;99.90
8214;DHT22;4148;47.974;7.824;2022-11-15T04:25:45;11.20;99.90
8214;DHT22;4148;47.974;7.824;2022-11-15T04:28:13;11.10;99.90
8214;DHT22;4148;47.974;7.824;2022-11-15T04:30:41;11.10;99.90
8214;DHT22;4148;47.974;7.824;2022-11-15T04:33:09;11.20;99.90
8214;DHT22;4148;47.974;7.824;2022-11-15T04:35:38;11.10;99.90
8214;DHT22;4148;47.974;7.824;2022-11-15T04:38:07;11.10;99.90
8214;DHT22;4148;47.974;7.824;2022-11-15T04:40:35;11.00;99.90
8214;DHT22;4148;47.974;7.824;2022-11-15T04:43:03;11.00;99.90
8214;DHT22;4148;47.974;7.824;2022-11-15T04:45:31;10.90;99.90
8214;DHT22;4148;47.974;7.824;2022-11-15T04:47:59;10.80;99.90
8214;DHT22;4148;47.974;7.824;2022-11-15T04:50:27;10.80;99.90
8214;DHT22;4148;47.974;7.824;2022-11-15T04:52:56;10.90;99.90
8214;DHT22;4148;47.974;7.824;2022-11-15T04:55:24;10.90;99.90
8214;DHT22;4148;47.974;7.824;2022-11-15T04:57:58;10.80;99.90
8214;DHT22;4148;47.974;7.824;2022-11-15T05:00:29;10.70;99.90
8214;DHT22;4148;47.974;7.824;2022-11-15T05:02:57;10.70;99.90
8214;DHT22;4148;47.974;7.824;2022-11-15T05:05:42;10.60;99.90
8214;DHT22;4148;47.974;7.824;2022-11-15T05:08:12;10.60;99.90
8214;DHT22;4148;47.974;7.824;2022-11-15T05:10:39;10.50;99.90
8214;DHT22;4148;47.974;7.824;2022-11-15T05:13:07;10.60;99.90
8214;DHT22;4148;47.974;7.824;2022-11-15T05:15:35;10.60;99.90
8214;DHT22;4148;47.974;7.824;2022-11-15T05:18:03;10.80;99.90
8214;DHT22;4148;47.974;7.824;2022-11-15T05:20:31;10.80;99.90
8214;DHT22;4148;47.974;7.824;2022-11-15T05:22:59;10.90;99.90
8214;DHT22;4148;47.974;7.824;2022-11-15T05:25:28;11.00;99.90
8214;DHT22;4148;47.974;7.824;2022-11-15T05:27:56;10.90;99.90
8214;DHT22;4148;47.974;7.824;2022-11-15T05:30:23;10.80;99.90
8214;DHT22;4148;47.974;7.824;2022-11-15T05:32:51;10.70;99.90
8214;DHT22;4148;47.974;7.824;2022-11-15T05:35:27;10.80;99.90
8214;DHT22;4148;47.974;7.824;2022-11-15T05:37:57;10.80;99.90
8214;DHT22;4148;47.974;7.824;2022-11-15T05:40:25;10.90;99.90
8214;DHT22;4148;47.974;7.824;2022-11-15T05:42:55;10.80;99.90
8214;DHT22;4148;47.974;7.824;2022-11-15T05:45:23;10.80;99.90
8214;DHT22;4148;47.974;7.824;2022-11-15T05:47:54;10.80;99.90
8214;DHT22;4148;47.974;7.824;2022-11-15T05:50:23;10.90;99.90
8214;DHT22;4148;47.974;7.824;2022-11-15T05:52:51;10.80;99.90
8214;DHT22;4148;47.974;7.824;2022-11-15T05:55:19;10.90;99.90
8214;DHT22;4148;47.974;7.824;2022-11-15T05:57:47;10.90;99.90
8214;DHT22;4148;47.974;7.824;2022-11-15T06:00:17;10.80;99.90
8214;DHT22;4148;47.974;7.824;2022-11-15T06:02:45;11.00;99.90
8214;DHT22;4148;47.974;7.824;2022-11-15T06:05:13;11.00;99.90
8214;DHT22;4148;47.974;7.824;2022-11-15T06:07:41;10.90;99.90
8214;DHT22;4148;47.974;7.824;2022-11-15T06:10:09;11.00;99.90
8214;DHT22;4148;47.974;7.824;2022-11-15T06:12:37;10.90;99.90
8214;DHT22;4148;47.974;7.824;2022-11-15T06:15:05;10.90;99.90
8214;DHT22;4148;47.974;7.824;2022-11-15T06:17:35;10.90;99.90
8214;DHT22;4148;47.974;7.824;2022-11-15T06:20:03;10.90;99.90
8214;DHT22;4148;47.974;7.824;2022-11-15T06:22:31;10.80;99.90
8214;DHT22;4148;47.974;7.824;2022-11-15T06:24:59;10.70;99.90
8214;DHT22;4148;47.974;7.824;2022-11-15T06:27:31;10.70;99.90
8214;DHT22;4148;47.974;7.824;2022-11-15T06:29:59;10.70;99.90
8214;DHT22;4148;47.974;7.824;2022-11-15T06:32:28;10.70;99.90
8214;DHT22;4148;47.974;7.824;2022-11-15T06:34:57;10.70;99.90
8214;DHT22;4148;47.974;7.824;2022-11-15T06:37:25;10.80;99.90
8214;DHT22;4148;47.974;7.824;2022-11-15T06:39:53;10.70;99.90
8214;DHT22;4148;47.974;7.824;2022-11-15T06:42:21;10.70;99.90
8214;DHT22;4148;47.974;7.824;2022-11-15T06:44:48;10.60;99.90
8214;DHT22;4148;47.974;7.824;2022-11-15T06:47:16;10.60;99.90
8214;DHT22;4148;47.974;7.824;2022-11-15T06:49:44;10.60;99.90
8214;DHT22;4148;47.974;7.824;2022-11-15T06:52:13;10.60;99.90
8214;DHT22;4148;47.974;7.824;2022-11-15T06:54:41;10.50;99.90
8214;DHT22;4148;47.974;7.824;2022-11-15T06:57:09;10.50;99.90
8214;DHT22;4148;47.974;7.824;2022-11-15T06:59:37;10.50;99.90
8214;DHT22;4148;47.974;7.824;2022-11-15T07:02:10;10.50;99.90
8214;DHT22;4148;47.974;7.824;2022-11-15T07:04:38;10.50;99.90
8214;DHT22;4148;47.974;7.824;2022-11-15T07:07:06;10.50;99.90
8214;DHT22;4148;47.974;7.824;2022-11-15T07:09:35;10.50;99.90
8214;DHT22;4148;47.974;7.824;2022-11-15T07:12:04;10.40;99.90
8214;DHT22;4148;47.974;7.824;2022-11-15T07:14:33;10.40;99.90
8214;DHT22;4148;47.974;7.824;2022-11-15T07:17:03;10.40;99.90
8214;DHT22;4148;47.974;7.824;2022-11-15T07:19:31;10.40;99.90
8214;DHT22;4148;47.974;7.824;2022-11-15T07:21:59;10.50;99.90
8214;DHT22;4148;47.974;7.824;2022-11-15T07:24:27;10.50;99.90
8214;DHT22;4148;47.974;7.824;2022-11-15T07:26:56;10.50;99.90
8214;DHT22;4148;47.974;7.824;2022-11-15T07:29:24;10.60;99.90
8214;DHT22;4148;47.974;7.824;2022-11-15T07:31:52;10.60;99.90
8214;DHT22;4148;47.974;7.824;2022-11-15T07:34:20;10.80;99.90
8214;DHT22;4148;47.974;7.824;2022-11-15T07:36:48;10.80;99.90
8214;DHT22;4148;47.974;7.824;2022-11-15T07:39:16;10.80;99.90
8214;DHT22;4148;47.974;7.824;2022-11-15T07:41:44;10.80;99.90
8214;DHT22;4148;47.974;7.824;2022-11-15T07:44:15;10.80;99.90
8214;DHT22;4148;47.974;7.824;2022-11-15T07:46:43;10.80;99.90
8214;DHT22;4148;47.974;7.824;2022-11-15T07:49:11;10.90;99.90
8214;DHT22;4148;47.974;7.824;2022-11-15T07:51:39;10.90;99.90
8214;DHT22;4148;47.974;7.824;2022-11-15T07:54:07;10.90;99.90
8214;DHT22;4148;47.974;7.824;2022-11-15T07:56:34;10.90;99.90
8214;DHT22;4148;47.974;7.824;2022-11-15T07:59:02;10.90;99.90
8214;DHT22;4148;47.974;7.824;2022-11-15T08:01:32;10.90;99.90
8214;DHT22;4148;47.974;7.824;2022-11-15T08:04:00;10.90;99.90
8214;DHT22;4148;47.974;7.824;2022-11-15T08:06:28;11.00;99.90
8214;DHT22;4148;47.974;7.824;2022-11-15T08:08:55;11.10;99.90
8214;DHT22;4148;47.974;7.824;2022-11-15T08:11:23;11.20;99.90
8214;DHT22;4148;47.974;7.824;2022-11-15T08:13:51;11.20;99.90
8214;DHT22;4148;47.974;7.824;2022-11-15T08:16:19;11.30;99.90
8214;DHT22;4148;47.974;7.824;2022-11-15T08:18:48;11.30;99.90
8214;DHT22;4148;47.974;7.824;2022-11-15T08:21:18;11.40;99.90
8214;DHT22;4148;47.974;7.824;2022-11-15T08:23:47;11.50;99.90
8214;DHT22;4148;47.974;7.824;2022-11-15T08:26:14;11.50;99.90
8214;DHT22;4148;47.974;7.824;2022-11-15T08:28:43;11.50;99.90
8214;DHT22;4148;47.974;7.824;2022-11-15T08:31:14;11.60;99.90
8214;DHT22;4148;47.974;7.824;2022-11-15T08:33:44;11.60;99.90
8214;DHT22;4148;47.974;7.824;2022-11-15T08:36:15;11.60;99.90
8214;DHT22;4148;47.974;7.824;2022-11-15T08:38:43;11.60;99.90
8214;DHT22;4148;47.974;7.824;2022-11-15T08:41:13;11.70;99.90
8214;DHT22;4148;47.974;7.824;2022-11-15T08:43:42;11.70;99.90
8214;DHT22;4148;47.974;7.824;2022-11-15T08:46:12;11.70;99.90
8214;DHT22;4148;47.974;7.824;2022-11-15T08:48:40;11.80;99.90
8214;DHT22;4148;47.974;7.824;2022-11-15T08:51:08;11.80;99.90
8214;DHT22;4148;47.974;7.824;2022-11-15T08:53:37;11.90;99.90
8214;DHT22;4148;47.974;7.824;2022-11-15T08:56:07;11.90;99.90
8214;DHT22;4148;47.974;7.824;2022-11-15T08:58:35;11.90;99.90
8214;DHT22;4148;47.974;7.824;2022-11-15T09:01:04;11.90;99.90
8214;DHT22;4148;47.974;7.824;2022-11-15T09:03:32;11.90;99.90
8214;DHT22;4148;47.974;7.824;2022-11-15T09:06:00;11.90;99.90
8214;DHT22;4148;47.974;7.824;2022-11-15T09:08:30;11.90;99.90
8214;DHT22;4148;47.974;7.824;2022-11-15T09:11:15;11.90;99.90
8214;DHT22;4148;47.974;7.824;2022-11-15T09:13:46;12.00;99.90
8214;DHT22;4148;47.974;7.824;2022-11-15T09:16:14;12.00;99.90
8214;DHT22;4148;47.974;7.824;2022-11-15T09:18:42;12.00;99.90
8214;DHT22;4148;47.974;7.824;2022-11-15T09:21:10;12.00;99.90
8214;DHT22;4148;47.974;7.824;2022-11-15T09:23:38;12.00;99.90
8214;DHT22;4148;47.974;7.824;2022-11-15T09:26:06;12.00;99.90
8214;DHT22;4148;47.974;7.824;2022-11-15T09:28:36;12.10;99.90
8214;DHT22;4148;47.974;7.824;2022-11-15T09:31:05;12.20;99.90
8214;DHT22;4148;47.974;7.824;2022-11-15T09:33:33;12.10;99.90
8214;DHT22;4148;47.974;7.824;2022-11-15T09:36:02;12.00;99.90
8214;DHT22;4148;47.974;7.824;2022-11-15T09:38:31;12.00;99.90
8214;DHT22;4148;47.974;7.824;2022-11-15T09:44:07;12.00;99.90
8214;DHT22;4148;47.974;7.824;2022-11-15T09:46:45;12.00;99.90
8214;DHT22;4148;47.974;7.824;2022-11-15T09:49:18;12.10;99.90
8214;DHT22;4148;47.974;7.824;2022-11-15T09:51:49;12.20;99.90
8214;DHT22;4148;47.974;7.824;2022-11-15T09:54:27;12.30;99.90
8214;DHT22;4148;47.974;7.824;2022-11-15T09:57:18;12.30;99.90
8214;DHT22;4148;47.974;7.824;2022-11-15T09:59:59;12.30;99.90
8214;DHT22;4148;47.974;7.824;2022-11-15T10:02:59;12.40;99.90
8214;DHT22;4148;47.974;7.824;2022-11-15T10:05:29;12.50;99.90
8214;DHT22;4148;47.974;7.824;2022-11-15T10:08:03;12.50;99.90
8214;DHT22;4148;47.974;7.824;2022-11-15T10:10:38;12.60;99.90
8214;DHT22;4148;47.974;7.824;2022-11-15T10:13:11;12.70;99.90
8214;DHT22;4148;47.974;7.824;2022-11-15T10:15:43;12.70;99.90
8214;DHT22;4148;47.974;7.824;2022-11-15T10:18:16;12.70;99.90
8214;DHT22;4148;47.974;7.824;2022-11-15T10:20:50;12.70;99.90
8214;DHT22;4148;47.974;7.824;2022-11-15T10:23:21;12.70;99.90
8214;DHT22;4148;47.974;7.824;2022-11-15T10:25:52;12.80;99.90
8214;DHT22;4148;47.974;7.824;2022-11-15T10:28:25;12.80;99.90
8214;DHT22;4148;47.974;7.824;2022-11-15T10:30:56;12.80;99.90
8214;DHT22;4148;47.974;7.824;2022-11-15T10:33:27;12.80;99.90
8214;DHT22;4148;47.974;7.824;2022-11-15T10:36:17;12.80;99.90
8214;DHT22;4148;47.974;7.824;2022-11-15T10:38:54;12.80;99.90
8214;DHT22;4148;47.974;7.824;2022-11-15T10:41:30;12.80;99.90
8214;DHT22;4148;47.974;7.824;2022-11-15T10:44:25;12.80;99.90
8214;DHT22;4148;47.974;7.824;2022-11-15T10:47:26;12.90;99.90
8214;DHT22;4148;47.974;7.824;2022-11-15T10:50:00;12.80;99.90
8214;DHT22;4148;47.974;7.824;2022-11-15T10:52:30;12.90;99.90
8214;DHT22;4148;47.974;7.824;2022-11-15T10:55:03;12.80;99.90
8214;DHT22;4148;47.974;7.824;2022-11-15T10:57:33;12.80;99.90
8214;DHT22;4148;47.974;7.824;2022-11-15T11:00:05;12.90;99.90
8214;DHT22;4148;47.974;7.824;2022-11-15T11:02:37;12.90;99.90
8214;DHT22;4148;47.974;7.824;2022-11-15T11:05:20;13.00;99.90
8214;DHT22;4148;47.974;7.824;2022-11-15T11:07:56;13.20;99.90
8214;DHT22;4148;47.974;7.824;2022-11-15T11:10:25;13.20;99.90
8214;DHT22;4148;47.974;7.824;2022-11-15T11:13:14;13.10;99.90
8214;DHT22;4148;47.974;7.824;2022-11-15T11:15:44;13.20;99.90
8214;DHT22;4148;47.974;7.824;2022-11-15T11:18:22;13.20;99.90
8214;DHT22;4148;47.974;7.824;2022-11-15T11:20:58;13.30;99.90
8214;DHT22;4148;47.974;7.824;2022-11-15T11:23:43;13.20;99.90
8214;DHT22;4148;47.974;7.824;2022-11-15T11:26:23;13.30;99.90
8214;DHT22;4148;47.974;7.824;2022-11-15T11:29:02;13.30;99.90
8214;DHT22;4148;47.974;7.824;2022-11-15T11:31:43;13.30;99.90
8214;DHT22;4148;47.974;7.824;2022-11-15T11:34:26;13.40;99.90
8214;DHT22;4148;47.974;7.824;2022-11-15T11:37:01;13.40;99.90
8214;DHT22;4148;47.974;7.824;2022-11-15T11:39:41;13.40;99.90
8214;DHT22;4148;47.974;7.824;2022-11-15T11:42:17;13.50;99.90
8214;DHT22;4148;47.974;7.824;2022-11-15T11:44:58;13.50;99.90
8214;DHT22;4148;47.974;7.824;2022-11-15T11:47:36;13.50;99.90
8214;DHT22;4148;47.974;7.824;2022-11-15T11:50:14;13.60;99.90
8214;DHT22;4148;47.974;7.824;2022-11-15T11:52:51;13.60;99.90
8214;DHT22;4148;47.974;7.824;2022-11-15T11:55:33;13.70;99.90
8214;DHT22;4148;47.974;7.824;2022-11-15T11:58:09;13.70;99.90
8214;DHT22;4148;47.974;7.824;2022-11-15T12:00:41;13.70;99.90
8214;DHT22;4148;47.974;7.824;2022-11-15T12:03:27;13.80;99.90
8214;DHT22;4148;47.974;7.824;2022-11-15T12:06:00;13.80;99.90
8214;DHT22;4148;47.974;7.824;2022-11-15T12:08:32;13.80;99.90
8214;DHT22;4148;47.974;7.824;2022-11-15T12:11:09;13.80;99.90
8214;DHT22;4148;47.974;7.824;2022-11-15T12:13:38;13.80;99.90
8214;DHT22;4148;47.974;7.824;2022-11-15T12:16:12;13.90;99.90
8214;DHT22;4148;47.974;7.824;2022-11-15T12:18:44;13.90;99.90
8214;DHT22;4148;47.974;7.824;2022-11-15T12:21:21;13.90;99.90
8214;DHT22;4148;47.974;7.824;2022-11-15T12:23:58;13.90;99.90
8214;DHT22;4148;47.974;7.824;2022-11-15T12:26:32;13.80;99.90
8214;DHT22;4148;47.974;7.824;2022-11-15T12:29:04;13.90;99.90
8214;DHT22;4148;47.974;7.824;2022-11-15T12:31:38;13.80;99.90
8214;DHT22;4148;47.974;7.824;2022-11-15T12:34:29;13.80;99.90
8214;DHT22;4148;47.974;7.824;2022-11-15T12:36:59;13.80;99.90
8214;DHT22;4148;47.974;7.824;2022-11-15T12:40:04;13.80;99.90
8214;DHT22;4148;47.974;7.824;2022-11-15T12:42:40;13.80;99.90
8214;DHT22;4148;47.974;7.824;2022-11-15T12:45:25;13.80;99.90
8214;DHT22;4148;47.974;7.824;2022-11-15T12:47:53;13.70;99.90
8214;DHT22;4148;47.974;7.824;2022-11-15T12:53:30;13.70;99.90
8214;DHT22;4148;47.974;7.824;2022-11-15T12:56:18;13.80;99.90
8214;DHT22;4148;47.974;7.824;2022-11-15T12:58:49;13.80;99.90
8214;DHT22;4148;47.974;7.824;2022-11-15T13:01:56;13.70;99.90
8214;DHT22;4148;47.974;7.824;2022-11-15T13:04:27;13.70;99.90
8214;DHT22;4148;47.974;7.824;2022-11-15T13:06:57;13.90;99.90
8214;DHT22;4148;47.974;7.824;2022-11-15T13:09:53;14.00;99.90
8214;DHT22;4148;47.974;7.824;2022-11-15T13:12:50;14.10;99.90
8214;DHT22;4148;47.974;7.824;2022-11-15T13:18:27;14.00;99.90
8214;DHT22;4148;47.974;7.824;2022-11-15T13:20:56;13.90;99.90
8214;DHT22;4148;47.974;7.824;2022-11-15T13:23:28;13.90;99.90
8214;DHT22;4148;47.974;7.824;2022-11-15T13:26:10;13.90;99.90
8214;DHT22;4148;47.974;7.824;2022-11-15T13:28:43;13.80;99.90
8214;DHT22;4148;47.974;7.824;2022-11-15T13:31:29;13.80;99.90
8214;DHT22;4148;47.974;7.824;2022-11-15T13:34:00;13.70;99.90
8214;DHT22;4148;47.974;7.824;2022-11-15T13:36:31;13.70;99.90
8214;DHT22;4148;47.974;7.824;2022-11-15T13:39:03;13.70;99.90
8214;DHT22;4148;47.974;7.824;2022-11-15T13:41:34;13.60;99.90
8214;DHT22;4148;47.974;7.824;2022-11-15T13:44:05;13.60;99.90
8214;DHT22;4148;47.974;7.824;2022-11-15T13:46:46;13.60;99.90
8214;DHT22;4148;47.974;7.824;2022-11-15T13:49:13;13.70;99.90
8214;DHT22;4148;47.974;7.824;2022-11-15T13:51:44;13.60;99.90
8214;DHT22;4148;47.974;7.824;2022-11-15T13:54:20;13.70;99.90
8214;DHT22;4148;47.974;7.824;2022-11-15T13:56:52;13.70;99.90
8214;DHT22;4148;47.974;7.824;2022-11-15T13:59:25;13.60;99.90
8214;DHT22;4148;47.974;7.824;2022-11-15T14:01:55;13.50;99.90
8214;DHT22;4148;47.974;7.824;2022-11-15T14:04:25;13.50;99.90
8214;DHT22;4148;47.974;7.824;2022-11-15T14:06:57;13.50;99.90
8214;DHT22;4148;47.974;7.824;2022-11-15T14:09:34;13.60;99.90
8214;DHT22;4148;47.974;7.824;2022-11-15T14:12:26;13.60;99.90
8214;DHT22;4148;47.974;7.824;2022-11-15T14:14:55;13.50;99.90
8214;DHT22;4148;47.974;7.824;2022-11-15T14:17:35;13.50;99.90
8214;DHT22;4148;47.974;7.824;2022-11-15T14:20:19;13.50;99.90
8214;DHT22;4148;47.974;7.824;2022-11-15T14:22:51;13.50;99.90
8214;DHT22;4148;47.974;7.824;2022-11-15T14:25:21;13.50;99.90
8214;DHT22;4148;47.974;7.824;2022-11-15T14:28:12;13.50;99.90
8214;DHT22;4148;47.974;7.824;2022-11-15T14:30:41;13.50;99.90
8214;DHT22;4148;47.974;7.824;2022-11-15T14:33:22;13.50;99.90
8214;DHT22;4148;47.974;7.824;2022-11-15T14:35:51;13.50;99.90
8214;DHT22;4148;47.974;7.824;2022-11-15T14:38:19;13.50;99.90
8214;DHT22;4148;47.974;7.824;2022-11-15T14:40:48;13.50;99.90
8214;DHT22;4148;47.974;7.824;2022-11-15T14:43:17;13.40;99.90
8214;DHT22;4148;47.974;7.824;2022-11-15T14:45:45;13.30;99.90
8214;DHT22;4148;47.974;7.824;2022-11-15T14:48:13;13.30;99.90
8214;DHT22;4148;47.974;7.824;2022-11-15T14:50:41;13.30;99.90
8214;DHT22;4148;47.974;7.824;2022-11-15T14:53:12;13.30;99.90
8214;DHT22;4148;47.974;7.824;2022-11-15T14:55:41;13.30;99.90
8214;DHT22;4148;47.974;7.824;2022-11-15T14:58:09;13.30;99.90
8214;DHT22;4148;47.974;7.824;2022-11-15T15:00:40;13.40;99.90
8214;DHT22;4148;47.974;7.824;2022-11-15T15:03:08;13.30;99.90
8214;DHT22;4148;47.974;7.824;2022-11-15T15:05:38;13.20;99.90
8214;DHT22;4148;47.974;7.824;2022-11-15T15:08:07;13.20;99.90
8214;DHT22;4148;47.974;7.824;2022-11-15T15:10:36;13.10;99.90
8214;DHT22;4148;47.974;7.824;2022-11-15T15:13:14;13.10;99.90
8214;DHT22;4148;47.974;7.824;2022-11-15T15:15:44;13.10;99.90
8214;DHT22;4148;47.974;7.824;2022-11-15T15:18:12;13.10;99.90
8214;DHT22;4148;47.974;7.824;2022-11-15T15:20:42;13.00;99.90
8214;DHT22;4148;47.974;7.824;2022-11-15T15:23:16;13.00;99.90
8214;DHT22;4148;47.974;7.824;2022-11-15T15:25:45;12.90;99.90
8214;DHT22;4148;47.974;7.824;2022-11-15T15:28:14;12.90;99.90
8214;DHT22;4148;47.974;7.824;2022-11-15T15:30:44;12.80;99.90
8214;DHT22;4148;47.974;7.824;2022-11-15T15:33:12;12.80;99.90
8214;DHT22;4148;47.974;7.824;2022-11-15T15:35:39;12.80;99.90
8214;DHT22;4148;47.974;7.824;2022-11-15T15:38:09;12.70;99.90
8214;DHT22;4148;47.974;7.824;2022-11-15T15:40:38;12.70;99.90
8214;DHT22;4148;47.974;7.824;2022-11-15T15:43:06;12.60;99.90
8214;DHT22;4148;47.974;7.824;2022-11-15T15:45:37;12.60;99.90
8214;DHT22;4148;47.974;7.824;2022-11-15T15:48:10;12.50;99.90
8214;DHT22;4148;47.974;7.824;2022-11-15T15:50:38;12.50;99.90
8214;DHT22;4148;47.974;7.824;2022-11-15T15:53:06;12.40;99.90
8214;DHT22;4148;47.974;7.824;2022-11-15T15:55:34;12.40;99.90
8214;DHT22;4148;47.974;7.824;2022-11-15T15:58:03;12.40;99.90
8214;DHT22;4148;47.974;7.824;2022-11-15T16:00:31;12.40;99.90
8214;DHT22;4148;47.974;7.824;2022-11-15T16:03:00;12.30;99.90
8214;DHT22;4148;47.974;7.824;2022-11-15T16:05:29;12.40;99.90
8214;DHT22;4148;47.974;7.824;2022-11-15T16:07:57;12.30;99.90
8214;DHT22;4148;47.974;7.824;2022-11-15T16:10:26;12.30;99.90
8214;DHT22;4148;47.974;7.824;2022-11-15T16:12:56;12.30;99.90
8214;DHT22;4148;47.974;7.824;2022-11-15T16:15:27;12.20;99.90
8214;DHT22;4148;47.974;7.824;2022-11-15T16:17:58;12.20;99.90
8214;DHT22;4148;47.974;7.824;2022-11-15T16:20:35;12.20;99.90
8214;DHT22;4148;47.974;7.824;2022-11-15T16:23:05;12.20;99.90
8214;DHT22;4148;47.974;7.824;2022-11-15T16:25:40;12.10;99.90
8214;DHT22;4148;47.974;7.824;2022-11-15T16:28:19;12.20;99.90
8214;DHT22;4148;47.974;7.824;2022-11-15T16:30:48;12.10;99.90
8214;DHT22;4148;47.974;7.824;2022-11-15T16:33:22;12.10;99.90
8214;DHT22;4148;47.974;7.824;2022-11-15T16:35:51;12.10;99.90
8214;DHT22;4148;47.974;7.824;2022-11-15T16:38:19;12.00;99.90
8214;DHT22;4148;47.974;7.824;2022-11-15T16:40:47;12.00;99.90
8214;DHT22;4148;47.974;7.824;2022-11-15T16:43:15;11.90;99.90
8214;DHT22;4148;47.974;7.824;2022-11-15T16:45:43;11.90;99.90
8214;DHT22;4148;47.974;7.824;2022-11-15T16:48:21;11.90;99.90